sensor_id;sensor_type;location;lat;lon;timestamp;temperature;humidity
21123;DHT22;10719;48.130;11.630;2024-02-28T00:02:05;6.20;99.90
21123;DHT22;10719;48.130;11.630;2024-02-28T00:04:31;6.20;99.90
21123;DHT22;10719;48.130;11.630;2024-02-28T00:06:56;6.20;99.90
21123;DHT22;10719;48.130;11.630;2024-02-28T00:09:22;6.10;99.90
21123;DHT22;10719;48.130;11.630;2024-02-28T00:11:48;6.10;99.90
21123;DHT22;10719;48.130;11.630;2024-02-28T00:14:14;6.10;99.90
21123;DHT22;10719;48.130;11.630;2024-02-28T00:16:43;6.10;99.90
21123;DHT22;10719;48.130;11.630;2024-02-28T00:19:09;6.10;99.90
21123;DHT22;10719;48.130;11.630;2024-02-28T00:21:37;6.10;99.90
21123;DHT22;10719;48.130;11.630;2024-02-28T00:24:02;6.10;99.90
21123;DHT22;10719;48.130;11.630;2024-02-28T00:26:28;6.10;99.90
21123;DHT22;10719;48.130;11.630;2024-02-28T00:28:54;6.10;99.90
21123;DHT22;10719;48.130;11.630;2024-02-28T00:31:19;6.10;99.90
21123;DHT22;10719;48.130;11.630;2024-02-28T00:33:46;6.10;99.90
21123;DHT22;10719;48.130;11.630;2024-02-28T00:36:12;6.10;99.90
21123;DHT22;10719;48.130;11.630;2024-02-28T00:38:38;6.10;99.90
21123;DHT22;10719;48.130;11.630;2024-02-28T00:41:03;6.10;99.90
21123;DHT22;10719;48.130;11.630;2024-02-28T00:43:29;6.10;99.90
21123;DHT22;10719;48.130;11.630;2024-02-28T00:45:55;6.00;99.90
21123;DHT22;10719;48.130;11.630;2024-02-28T00:48:22;6.00;99.90
21123;DHT22;10719;48.130;11.630;2024-02-28T00:50:47;6.00;99.90
21123;DHT22;10719;48.130;11.630;2024-02-28T00:53:13;6.00;99.90
21123;DHT22;10719;48.130;11.630;2024-02-28T00:55:38;6.10;99.90
21123;DHT22;10719;48.130;11.630;2024-02-28T00:58:04;6.10;99.90
21123;DHT22;10719;48.130;11.630;2024-02-28T01:00:29;6.10;99.90
21123;DHT22;10719;48.130;11.630;2024-02-28T01:02:55;6.00;99.90
21123;DHT22;10719;48.130;11.630;2024-02-28T01:05:21;6.00;99.90
21123;DHT22;10719;48.130;11.630;2024-02-28T01:07:46;5.90;99.90
21123;DHT22;10719;48.130;11.630;2024-02-28T01:10:12;6.00;99.90
21123;DHT22;10719;48.130;11.630;2024-02-28T01:12:38;6.00;99.90
21123;DHT22;10719;48.130;11.630;2024-02-28T01:15:04;6.10;99.90
21123;DHT22;10719;48.130;11.630;2024-02-28T01:17:29;6.10;99.90
21123;DHT22;10719;48.130;11.630;2024-02-28T01:19:56;6.10;99.90
21123;DHT22;10719;48.130;11.630;2024-02-28T01:22:22;6.10;99.90
21123;DHT22;10719;48.130;11.630;2024-02-28T01:24:47;6.10;99.90
21123;DHT22;10719;48.130;11.630;2024-02-28T01:27:13;6.10;99.90
21123;DHT22;10719;48.130;11.630;2024-02-28T01:29:38;6.10;99.90
21123;DHT22;10719;48.130;11.630;2024-02-28T01:32:04;6.00;99.90
21123;DHT22;10719;48.130;11.630;2024-02-28T01:34:30;6.00;99.90
21123;DHT22;10719;48.130;11.630;2024-02-28T01:36:55;6.00;99.90
21123;DHT22;10719;48.130;11.630;2024-02-28T01:39:22;5.90;99.90
21123;DHT22;10719;48.130;11.630;2024-02-28T01:41:54;5.90;99.90
21123;DHT22;10719;48.130;11.630;2024-02-28T01:44:20;5.90;99.90
21123;DHT22;10719;48.130;11.630;2024-02-28T01:46:46;6.00;99.90
21123;DHT22;10719;48.130;11.630;2024-02-28T01:49:12;6.00;99.90
21123;DHT22;10719;48.130;11.630;2024-02-28T01:51:39;6.20;99.90
21123;DHT22;10719;48.130;11.630;2024-02-28T01:54:04;6.20;99.90
21123;DHT22;10719;48.130;11.630;2024-02-28T01:56:31;6.20;99.90
21123;DHT22;10719;48.130;11.630;2024-02-28T01:58:57;6.30;99.90
21123;DHT22;10719;48.130;11.630;2024-02-28T02:01:23;6.20;99.90
21123;DHT22;10719;48.130;11.630;2024-02-28T02:03:49;6.20;99.90
21123;DHT22;10719;48.130;11.630;2024-02-28T02:06:14;6.20;99.90
21123;DHT22;10719;48.130;11.630;2024-02-28T02:08:40;6.10;99.90
21123;DHT22;10719;48.130;11.630;2024-02-28T02:11:06;6.20;99.90
21123;DHT22;10719;48.130;11.630;2024-02-28T02:13:32;6.10;99.90
21123;DHT22;10719;48.130;11.630;2024-02-28T02:15:58;6.10;99.90
21123;DHT22;10719;48.130;11.630;2024-02-28T02:18:23;6.10;99.90
21123;DHT22;10719;48.130;11.630;2024-02-28T02:20:50;6.20;99.90
21123;DHT22;10719;48.130;11.630;2024-02-28T02:23:18;6.10;99.90
21123;DHT22;10719;48.130;11.630;2024-02-28T02:25:48;6.10;99.90
21123;DHT22;10719;48.130;11.630;2024-02-28T02:28:14;6.10;99.90
21123;DHT22;10719;48.130;11.630;2024-02-28T02:30:40;6.10;99.90
21123;DHT22;10719;48.130;11.630;2024-02-28T02:33:07;6.10;99.90
21123;DHT22;10719;48.130;11.630;2024-02-28T02:35:33;6.10;99.90
21123;DHT22;10719;48.130;11.630;2024-02-28T02:37:59;6.10;99.90
21123;DHT22;10719;48.130;11.630;2024-02-28T02:40:25;6.00;99.90
21123;DHT22;10719;48.130;11.630;2024-02-28T02:42:51;6.00;99.90
21123;DHT22;10719;48.130;11.630;2024-02-28T02:45:17;5.90;99.90
21123;DHT22;10719;48.130;11.630;2024-02-28T02:47:42;5.90;99.90
21123;DHT22;10719;48.130;11.630;2024-02-28T02:50:11;5.90;99.90
21123;DHT22;10719;48.130;11.630;2024-02-28T02:52:36;5.80;99.90
21123;DHT22;10719;48.130;11.630;2024-02-28T02:55:02;5.90;99.90
21123;DHT22;10719;48.130;11.630;2024-02-28T02:57:28;5.90;99.90
21123;DHT22;10719;48.130;11.630;2024-02-28T02:59:56;5.80;99.90
21123;DHT22;10719;48.130;11.630;2024-02-28T03:02:21;5.70;99.90
21123;DHT22;10719;48.130;11.630;2024-02-28T03:04:47;5.80;99.90
21123;DHT22;10719;48.130;11.630;2024-02-28T03:07:12;5.80;99.90
21123;DHT22;10719;48.130;11.630;2024-02-28T03:09:38;5.80;99.90
21123;DHT22;10719;48.130;11.630;2024-02-28T03:12:04;5.80;99.90
21123;DHT22;10719;48.130;11.630;2024-02-28T03:14:29;5.90;99.90
21123;DHT22;10719;48.130;11.630;2024-02-28T03:16:55;5.80;99.90
21123;DHT22;10719;48.130;11.630;2024-02-28T03:19:20;5.80;99.90
21123;DHT22;10719;48.130;11.630;2024-02-28T03:21:47;5.70;99.90
21123;DHT22;10719;48.130;11.630;2024-02-28T03:24:12;5.70;99.90
21123;DHT22;10719;48.130;11.630;2024-02-28T03:26:38;5.60;99.90
21123;DHT22;10719;48.130;11.630;2024-02-28T03:29:04;5.50;99.90
21123;DHT22;10719;48.130;11.630;2024-02-28T03:31:29;5.50;99.90
21123;DHT22;10719;48.130;11.630;2024-02-28T03:33:55;5.40;99.90
21123;DHT22;10719;48.130;11.630;2024-02-28T03:36:20;5.40;99.90
21123;DHT22;10719;48.130;11.630;2024-02-28T03:38:46;5.40;99.90
21123;DHT22;10719;48.130;11.630;2024-02-28T03:41:11;5.40;99.90
21123;DHT22;10719;48.130;11.630;2024-02-28T03:43:37;5.40;99.90
21123;DHT22;10719;48.130;11.630;2024-02-28T03:46:03;5.40;99.90
21123;DHT22;10719;48.130;11.630;2024-02-28T03:48:28;5.40;99.90
21123;DHT22;10719;48.130;11.630;2024-02-28T03:50:54;5.40;99.90
21123;DHT22;10719;48.130;11.630;2024-02-28T03:53:19;5.30;99.90
21123;DHT22;10719;48.130;11.630;2024-02-28T03:55:45;5.30;99.90
21123;DHT22;10719;48.130;11.630;2024-02-28T03:58:11;5.20;99.90
21123;DHT22;10719;48.130;11.630;2024-02-28T04:00:37;5.20;99.90
21123;DHT22;10719;48.130;11.630;2024-02-28T04:03:05;5.20;99.90
21123;DHT22;10719;48.130;11.630;2024-02-28T04:05:31;5.20;99.90
21123;DHT22;10719;48.130;11.630;2024-02-28T04:07:56;5.20;99.90
21123;DHT22;10719;48.130;11.630;2024-02-28T04:10:22;5.20;99.90
21123;DHT22;10719;48.130;11.630;2024-02-28T04:12:47;5.20;99.90
21123;DHT22;10719;48.130;11.630;2024-02-28T04:15:14;5.20;99.90
21123;DHT22;10719;48.130;11.630;2024-02-28T04:17:40;5.20;99.90
21123;DHT22;10719;48.130;11.630;2024-02-28T04:20:15;5.20;99.90
21123;DHT22;10719;48.130;11.630;2024-02-28T04:22:40;5.20;99.90
21123;DHT22;10719;48.130;11.630;2024-02-28T04:25:08;5.20;99.90
21123;DHT22;10719;48.130;11.630;2024-02-28T04:27:35;5.20;99.90
21123;DHT22;10719;48.130;11.630;2024-02-28T04:30:01;5.20;99.90
21123;DHT22;10719;48.130;11.630;2024-02-28T04:32:26;5.10;99.90
21123;DHT22;10719;48.130;11.630;2024-02-28T04:34:52;5.10;99.90
21123;DHT22;10719;48.130;11.630;2024-02-28T04:37:17;5.20;99.90
21123;DHT22;10719;48.130;11.630;2024-02-28T04:39:43;5.20;99.90
21123;DHT22;10719;48.130;11.630;2024-02-28T04:42:09;5.20;99.90
21123;DHT22;10719;48.130;11.630;2024-02-28T04:44:34;5.10;99.90
21123;DHT22;10719;48.130;11.630;2024-02-28T04:47:01;5.20;99.90
21123;DHT22;10719;48.130;11.630;2024-02-28T04:49:26;5.20;99.90
21123;DHT22;10719;48.130;11.630;2024-02-28T04:51:52;5.20;99.90
21123;DHT22;10719;48.130;11.630;2024-02-28T04:54:18;5.20;99.90
21123;DHT22;10719;48.130;11.630;2024-02-28T04:56:44;5.20;99.90
21123;DHT22;10719;48.130;11.630;2024-02-28T04:59:11;5.20;99.90
21123;DHT22;10719;48.130;11.630;2024-02-28T05:01:38;5.20;99.90
21123;DHT22;10719;48.130;11.630;2024-02-28T05:04:11;5.20;99.90
21123;DHT22;10719;48.130;11.630;2024-02-28T05:06:37;5.10;99.90
21123;DHT22;10719;48.130;11.630;2024-02-28T05:09:02;5.20;99.90
21123;DHT22;10719;48.130;11.630;2024-02-28T05:11:28;5.20;99.90
21123;DHT22;10719;48.130;11.630;2024-02-28T05:13:53;5.10;99.90
21123;DHT22;10719;48.130;11.630;2024-02-28T05:16:19;5.10;99.90
21123;DHT22;10719;48.130;11.630;2024-02-28T05:18:45;5.10;99.90
21123;DHT22;10719;48.130;11.630;2024-02-28T05:21:11;5.10;99.90
21123;DHT22;10719;48.130;11.630;2024-02-28T05:23:37;5.10;99.90
21123;DHT22;10719;48.130;11.630;2024-02-28T05:26:03;5.10;99.90
21123;DHT22;10719;48.130;11.630;2024-02-28T05:28:35;5.10;99.90
21123;DHT22;10719;48.130;11.630;2024-02-28T05:31:03;5.10;99.90
21123;DHT22;10719;48.130;11.630;2024-02-28T05:33:44;5.10;99.90
21123;DHT22;10719;48.130;11.630;2024-02-28T05:36:09;5.10;99.90
21123;DHT22;10719;48.130;11.630;2024-02-28T05:38:35;5.10;99.90
21123;DHT22;10719;48.130;11.630;2024-02-28T05:41:00;5.10;99.90
21123;DHT22;10719;48.130;11.630;2024-02-28T05:43:26;5.10;99.90
21123;DHT22;10719;48.130;11.630;2024-02-28T05:45:52;5.10;99.90
21123;DHT22;10719;48.130;11.630;2024-02-28T05:48:18;5.20;99.90
21123;DHT22;10719;48.130;11.630;2024-02-28T05:50:44;5.20;99.90
21123;DHT22;10719;48.130;11.630;2024-02-28T05:53:09;5.20;99.90
21123;DHT22;10719;48.130;11.630;2024-02-28T05:55:35;5.20;99.90
21123;DHT22;10719;48.130;11.630;2024-02-28T05:58:01;5.10;99.90
21123;DHT22;10719;48.130;11.630;2024-02-28T06:00:27;5.10;99.90
21123;DHT22;10719;48.130;11.630;2024-02-28T06:02:53;5.10;99.90
21123;DHT22;10719;48.130;11.630;2024-02-28T06:05:19;5.20;99.90
21123;DHT22;10719;48.130;11.630;2024-02-28T06:07:45;5.20;99.90
21123;DHT22;10719;48.130;11.630;2024-02-28T06:10:10;5.20;99.90
21123;DHT22;10719;48.130;11.630;2024-02-28T06:12:36;5.20;99.90
21123;DHT22;10719;48.130;11.630;2024-02-28T06:15:02;5.20;99.90
21123;DHT22;10719;48.130;11.630;2024-02-28T06:17:29;5.20;99.90
21123;DHT22;10719;48.130;11.630;2024-02-28T06:19:54;5.30;99.90
21123;DHT22;10719;48.130;11.630;2024-02-28T06:22:20;5.20;99.90
21123;DHT22;10719;48.130;11.630;2024-02-28T06:24:46;5.20;99.90
21123;DHT22;10719;48.130;11.630;2024-02-28T06:27:11;5.30;99.90
21123;DHT22;10719;48.130;11.630;2024-02-28T06:29:42;5.30;99.90
21123;DHT22;10719;48.130;11.630;2024-02-28T06:32:08;5.30;99.90
21123;DHT22;10719;48.130;11.630;2024-02-28T06:34:33;5.30;99.90
21123;DHT22;10719;48.130;11.630;2024-02-28T06:36:59;5.20;99.90
21123;DHT22;10719;48.130;11.630;2024-02-28T06:39:25;5.30;99.90
21123;DHT22;10719;48.130;11.630;2024-02-28T06:41:50;5.30;99.90
21123;DHT22;10719;48.130;11.630;2024-02-28T06:44:18;5.30;99.90
21123;DHT22;10719;48.130;11.630;2024-02-28T06:46:44;5.30;99.90
21123;DHT22;10719;48.130;11.630;2024-02-28T06:49:10;5.40;99.90
21123;DHT22;10719;48.130;11.630;2024-02-28T06:51:35;5.40;99.90
21123;DHT22;10719;48.130;11.630;2024-02-28T06:54:01;5.40;99.90
21123;DHT22;10719;48.130;11.630;2024-02-28T06:56:26;5.40;99.90
21123;DHT22;10719;48.130;11.630;2024-02-28T06:58:52;5.50;99.90
21123;DHT22;10719;48.130;11.630;2024-02-28T07:01:18;5.50;99.90
21123;DHT22;10719;48.130;11.630;2024-02-28T07:03:44;5.40;99.90
21123;DHT22;10719;48.130;11.630;2024-02-28T07:06:11;5.30;99.90
21123;DHT22;10719;48.130;11.630;2024-02-28T07:08:36;5.50;99.90
21123;DHT22;10719;48.130;11.630;2024-02-28T07:11:02;5.50;99.90
21123;DHT22;10719;48.130;11.630;2024-02-28T07:13:28;5.50;99.90
21123;DHT22;10719;48.130;11.630;2024-02-28T07:15:54;5.50;99.90
21123;DHT22;10719;48.130;11.630;2024-02-28T07:18:20;5.60;99.90
21123;DHT22;10719;48.130;11.630;2024-02-28T07:20:46;5.50;99.90
21123;DHT22;10719;48.130;11.630;2024-02-28T07:23:12;5.60;99.90
21123;DHT22;10719;48.130;11.630;2024-02-28T07:25:37;5.60;99.90
21123;DHT22;10719;48.130;11.630;2024-02-28T07:28:03;5.60;99.90
21123;DHT22;10719;48.130;11.630;2024-02-28T07:30:30;5.70;99.90
21123;DHT22;10719;48.130;11.630;2024-02-28T07:32:55;5.70;99.90
21123;DHT22;10719;48.130;11.630;2024-02-28T07:35:22;5.70;99.90
21123;DHT22;10719;48.130;11.630;2024-02-28T07:37:49;5.70;99.90
21123;DHT22;10719;48.130;11.630;2024-02-28T07:40:15;5.70;99.90
21123;DHT22;10719;48.130;11.630;2024-02-28T07:42:40;5.60;99.90
21123;DHT22;10719;48.130;11.630;2024-02-28T07:45:06;5.70;99.90
21123;DHT22;10719;48.130;11.630;2024-02-28T07:47:34;5.60;99.90
21123;DHT22;10719;48.130;11.630;2024-02-28T07:49:59;5.50;99.90
21123;DHT22;10719;48.130;11.630;2024-02-28T07:52:25;5.60;99.90
21123;DHT22;10719;48.130;11.630;2024-02-28T07:54:50;5.60;99.90
21123;DHT22;10719;48.130;11.630;2024-02-28T07:57:17;5.60;99.90
21123;DHT22;10719;48.130;11.630;2024-02-28T07:59:43;5.70;99.90
21123;DHT22;10719;48.130;11.630;2024-02-28T08:02:09;5.70;99.90
21123;DHT22;10719;48.130;11.630;2024-02-28T08:04:37;5.70;99.90
21123;DHT22;10719;48.130;11.630;2024-02-28T08:07:03;5.80;99.90
21123;DHT22;10719;48.130;11.630;2024-02-28T08:09:29;5.80;99.90
21123;DHT22;10719;48.130;11.630;2024-02-28T08:11:54;5.80;99.90
21123;DHT22;10719;48.130;11.630;2024-02-28T08:14:20;5.70;99.90
21123;DHT22;10719;48.130;11.630;2024-02-28T08:16:46;5.70;99.90
21123;DHT22;10719;48.130;11.630;2024-02-28T08:19:12;5.80;99.90
21123;DHT22;10719;48.130;11.630;2024-02-28T08:21:37;5.80;99.90
21123;DHT22;10719;48.130;11.630;2024-02-28T08:24:03;5.80;99.90
21123;DHT22;10719;48.130;11.630;2024-02-28T08:26:31;5.80;99.90
21123;DHT22;10719;48.130;11.630;2024-02-28T08:28:56;5.80;99.90
21123;DHT22;10719;48.130;11.630;2024-02-28T08:31:22;5.70;99.90
21123;DHT22;10719;48.130;11.630;2024-02-28T08:33:48;5.80;99.90
21123;DHT22;10719;48.130;11.630;2024-02-28T08:36:14;5.80;99.90
21123;DHT22;10719;48.130;11.630;2024-02-28T08:38:40;5.80;99.90
21123;DHT22;10719;48.130;11.630;2024-02-28T08:41:07;5.90;99.90
21123;DHT22;10719;48.130;11.630;2024-02-28T08:43:37;5.90;99.90
21123;DHT22;10719;48.130;11.630;2024-02-28T08:46:03;6.00;99.90
21123;DHT22;10719;48.130;11.630;2024-02-28T08:48:29;6.00;99.90
21123;DHT22;10719;48.130;11.630;2024-02-28T08:50:54;5.90;99.90
21123;DHT22;10719;48.130;11.630;2024-02-28T08:53:20;6.00;99.90
21123;DHT22;10719;48.130;11.630;2024-02-28T08:55:45;6.10;99.90
21123;DHT22;10719;48.130;11.630;2024-02-28T08:58:12;6.10;99.90
21123;DHT22;10719;48.130;11.630;2024-02-28T09:00:37;6.10;99.90
21123;DHT22;10719;48.130;11.630;2024-02-28T09:03:04;6.00;99.90
21123;DHT22;10719;48.130;11.630;2024-02-28T09:05:30;6.00;99.90
21123;DHT22;10719;48.130;11.630;2024-02-28T09:07:55;6.10;99.90
21123;DHT22;10719;48.130;11.630;2024-02-28T09:10:23;6.20;99.90
21123;DHT22;10719;48.130;11.630;2024-02-28T09:12:50;6.20;99.90
21123;DHT22;10719;48.130;11.630;2024-02-28T09:15:15;6.20;99.90
21123;DHT22;10719;48.130;11.630;2024-02-28T09:17:41;6.20;99.90
21123;DHT22;10719;48.130;11.630;2024-02-28T09:20:07;6.20;99.90
21123;DHT22;10719;48.130;11.630;2024-02-28T09:22:33;6.10;99.90
21123;DHT22;10719;48.130;11.630;2024-02-28T09:25:00;6.20;99.90
21123;DHT22;10719;48.130;11.630;2024-02-28T09:27:29;6.10;99.90
21123;DHT22;10719;48.130;11.630;2024-02-28T09:29:55;6.00;99.90
21123;DHT22;10719;48.130;11.630;2024-02-28T09:32:20;6.00;99.90
21123;DHT22;10719;48.130;11.630;2024-02-28T09:34:46;6.20;99.90
21123;DHT22;10719;48.130;11.630;2024-02-28T09:37:12;6.20;99.90
21123;DHT22;10719;48.130;11.630;2024-02-28T09:39:41;6.20;99.90
21123;DHT22;10719;48.130;11.630;2024-02-28T09:42:07;6.10;99.90
21123;DHT22;10719;48.130;11.630;2024-02-28T09:44:34;6.20;99.90
21123;DHT22;10719;48.130;11.630;2024-02-28T09:47:01;6.10;99.90
21123;DHT22;10719;48.130;11.630;2024-02-28T09:49:27;6.20;99.90
21123;DHT22;10719;48.130;11.630;2024-02-28T09:51:54;6.20;99.90
21123;DHT22;10719;48.130;11.630;2024-02-28T09:54:22;6.40;99.90
21123;DHT22;10719;48.130;11.630;2024-02-28T09:56:48;6.50;99.90
21123;DHT22;10719;48.130;11.630;2024-02-28T09:59:18;6.60;99.90
21123;DHT22;10719;48.130;11.630;2024-02-28T10:01:47;6.70;99.90
21123;DHT22;10719;48.130;11.630;2024-02-28T10:04:15;6.60;99.90
21123;DHT22;10719;48.130;11.630;2024-02-28T10:06:40;6.50;99.90
21123;DHT22;10719;48.130;11.630;2024-02-28T10:09:06;6.40;99.90
21123;DHT22;10719;48.130;11.630;2024-02-28T10:11:33;6.50;99.90
21123;DHT22;10719;48.130;11.630;2024-02-28T10:14:01;6.70;99.90
21123;DHT22;10719;48.130;11.630;2024-02-28T10:16:27;6.70;99.90
21123;DHT22;10719;48.130;11.630;2024-02-28T10:18:52;6.60;99.90
21123;DHT22;10719;48.130;11.630;2024-02-28T10:21:19;6.60;99.90
21123;DHT22;10719;48.130;11.630;2024-02-28T10:23:45;6.90;99.90
21123;DHT22;10719;48.130;11.630;2024-02-28T10:26:11;7.10;99.90
21123;DHT22;10719;48.130;11.630;2024-02-28T10:28:38;7.20;99.90
21123;DHT22;10719;48.130;11.630;2024-02-28T10:31:05;7.30;99.90
21123;DHT22;10719;48.130;11.630;2024-02-28T10:33:32;7.30;99.90
21123;DHT22;10719;48.130;11.630;2024-02-28T10:35:59;7.30;99.90
21123;DHT22;10719;48.130;11.630;2024-02-28T10:38:26;7.30;99.90
21123;DHT22;10719;48.130;11.630;2024-02-28T10:40:53;7.30;99.90
21123;DHT22;10719;48.130;11.630;2024-02-28T10:43:20;7.30;99.90
21123;DHT22;10719;48.130;11.630;2024-02-28T10:45:46;7.30;99.90
21123;DHT22;10719;48.130;11.630;2024-02-28T10:48:14;7.30;99.90
21123;DHT22;10719;48.130;11.630;2024-02-28T10:50:40;7.40;99.90
21123;DHT22;10719;48.130;11.630;2024-02-28T10:53:13;7.30;99.90
21123;DHT22;10719;48.130;11.630;2024-02-28T10:55:41;7.30;99.90
21123;DHT22;10719;48.130;11.630;2024-02-28T10:58:10;7.20;99.90
21123;DHT22;10719;48.130;11.630;2024-02-28T11:00:40;7.20;99.90
21123;DHT22;10719;48.130;11.630;2024-02-28T11:03:15;7.00;99.90
21123;DHT22;10719;48.130;11.630;2024-02-28T11:05:43;7.10;99.90
21123;DHT22;10719;48.130;11.630;2024-02-28T11:08:19;7.20;99.90
21123;DHT22;10719;48.130;11.630;2024-02-28T11:10:46;7.30;99.90
21123;DHT22;10719;48.130;11.630;2024-02-28T11:13:22;7.10;99.90
21123;DHT22;10719;48.130;11.630;2024-02-28T11:15:47;7.20;99.90
21123;DHT22;10719;48.130;11.630;2024-02-28T11:18:13;7.30;99.90
21123;DHT22;10719;48.130;11.630;2024-02-28T11:20:39;7.30;99.90
21123;DHT22;10719;48.130;11.630;2024-02-28T11:23:08;7.30;99.90
21123;DHT22;10719;48.130;11.630;2024-02-28T11:25:35;7.40;99.90
21123;DHT22;10719;48.130;11.630;2024-02-28T11:28:00;7.10;99.90
21123;DHT22;10719;48.130;11.630;2024-02-28T11:30:26;7.10;99.90
21123;DHT22;10719;48.130;11.630;2024-02-28T11:32:52;7.10;99.90
21123;DHT22;10719;48.130;11.630;2024-02-28T11:35:19;7.20;99.90
21123;DHT22;10719;48.130;11.630;2024-02-28T11:37:47;7.10;99.90
21123;DHT22;10719;48.130;11.630;2024-02-28T11:40:14;7.10;99.90
21123;DHT22;10719;48.130;11.630;2024-02-28T11:42:40;6.90;99.90
21123;DHT22;10719;48.130;11.630;2024-02-28T11:45:09;6.90;99.90
21123;DHT22;10719;48.130;11.630;2024-02-28T11:47:35;7.00;99.90
21123;DHT22;10719;48.130;11.630;2024-02-28T11:50:02;7.00;99.90
21123;DHT22;10719;48.130;11.630;2024-02-28T11:52:30;6.90;99.90
21123;DHT22;10719;48.130;11.630;2024-02-28T11:54:56;6.90;99.90
21123;DHT22;10719;48.130;11.630;2024-02-28T11:57:21;6.80;99.90
21123;DHT22;10719;48.130;11.630;2024-02-28T11:59:48;6.90;99.90
21123;DHT22;10719;48.130;11.630;2024-02-28T12:02:15;6.90;99.90
21123;DHT22;10719;48.130;11.630;2024-02-28T12:04:45;6.90;99.90
21123;DHT22;10719;48.130;11.630;2024-02-28T12:07:13;6.90;99.90
21123;DHT22;10719;48.130;11.630;2024-02-28T12:09:39;6.90;99.90
21123;DHT22;10719;48.130;11.630;2024-02-28T12:12:07;6.80;99.90
21123;DHT22;10719;48.130;11.630;2024-02-28T12:14:36;6.80;99.90
21123;DHT22;10719;48.130;11.630;2024-02-28T12:17:04;6.60;99.90
21123;DHT22;10719;48.130;11.630;2024-02-28T12:19:29;6.60;99.90
21123;DHT22;10719;48.130;11.630;2024-02-28T12:21:55;6.60;99.90
21123;DHT22;10719;48.130;11.630;2024-02-28T12:24:21;6.60;99.90
21123;DHT22;10719;48.130;11.630;2024-02-28T12:26:47;6.70;99.90
21123;DHT22;10719;48.130;11.630;2024-02-28T12:29:13;6.60;99.90
21123;DHT22;10719;48.130;11.630;2024-02-28T12:31:39;6.60;99.90
21123;DHT22;10719;48.130;11.630;2024-02-28T12:34:04;6.60;99.90
21123;DHT22;10719;48.130;11.630;2024-02-28T12:36:30;6.60;99.90
21123;DHT22;10719;48.130;11.630;2024-02-28T12:38:57;6.70;99.90
21123;DHT22;10719;48.130;11.630;2024-02-28T12:41:25;6.70;99.90
21123;DHT22;10719;48.130;11.630;2024-02-28T12:43:51;6.70;99.90
21123;DHT22;10719;48.130;11.630;2024-02-28T12:46:17;6.70;99.90
21123;DHT22;10719;48.130;11.630;2024-02-28T12:48:42;6.70;99.90
21123;DHT22;10719;48.130;11.630;2024-02-28T12:51:11;6.70;99.90
21123;DHT22;10719;48.130;11.630;2024-02-28T12:53:39;6.70;99.90
21123;DHT22;10719;48.130;11.630;2024-02-28T12:56:05;6.70;99.90
21123;DHT22;10719;48.130;11.630;2024-02-28T12:58:31;6.70;99.90
21123;DHT22;10719;48.130;11.630;2024-02-28T13:00:57;6.80;99.90
21123;DHT22;10719;48.130;11.630;2024-02-28T13:03:23;7.00;99.90
21123;DHT22;10719;48.130;11.630;2024-02-28T13:05:48;7.00;99.90
21123;DHT22;10719;48.130;11.630;2024-02-28T13:08:14;7.10;99.90
21123;DHT22;10719;48.130;11.630;2024-02-28T13:10:40;7.10;99.90
21123;DHT22;10719;48.130;11.630;2024-02-28T13:13:07;7.20;99.90
21123;DHT22;10719;48.130;11.630;2024-02-28T13:15:33;7.20;99.90
21123;DHT22;10719;48.130;11.630;2024-02-28T13:17:59;7.30;99.90
21123;DHT22;10719;48.130;11.630;2024-02-28T13:20:26;7.30;99.90
21123;DHT22;10719;48.130;11.630;2024-02-28T13:22:52;7.20;99.90
21123;DHT22;10719;48.130;11.630;2024-02-28T13:25:17;7.00;99.90
21123;DHT22;10719;48.130;11.630;2024-02-28T13:27:45;7.00;99.90
21123;DHT22;10719;48.130;11.630;2024-02-28T13:30:11;6.90;99.90
21123;DHT22;10719;48.130;11.630;2024-02-28T13:32:37;7.10;99.90
21123;DHT22;10719;48.130;11.630;2024-02-28T13:35:03;7.10;99.90
21123;DHT22;10719;48.130;11.630;2024-02-28T13:37:29;7.00;99.90
21123;DHT22;10719;48.130;11.630;2024-02-28T13:39:54;7.00;99.90
21123;DHT22;10719;48.130;11.630;2024-02-28T13:42:21;7.10;99.90
21123;DHT22;10719;48.130;11.630;2024-02-28T13:44:49;6.90;99.90
21123;DHT22;10719;48.130;11.630;2024-02-28T13:47:15;6.80;99.90
21123;DHT22;10719;48.130;11.630;2024-02-28T13:49:41;6.80;99.90
21123;DHT22;10719;48.130;11.630;2024-02-28T13:52:07;6.70;99.90
21123;DHT22;10719;48.130;11.630;2024-02-28T13:54:32;6.90;99.90
21123;DHT22;10719;48.130;11.630;2024-02-28T13:56:58;6.90;99.90
21123;DHT22;10719;48.130;11.630;2024-02-28T13:59:24;6.90;99.90
21123;DHT22;10719;48.130;11.630;2024-02-28T14:01:50;6.90;99.90
21123;DHT22;10719;48.130;11.630;2024-02-28T14:04:16;6.90;99.90
21123;DHT22;10719;48.130;11.630;2024-02-28T14:06:41;6.80;99.90
21123;DHT22;10719;48.130;11.630;2024-02-28T14:09:07;6.80;99.90
21123;DHT22;10719;48.130;11.630;2024-02-28T14:11:34;6.80;99.90
21123;DHT22;10719;48.130;11.630;2024-02-28T14:14:00;6.70;99.90
21123;DHT22;10719;48.130;11.630;2024-02-28T14:16:26;6.80;99.90
21123;DHT22;10719;48.130;11.630;2024-02-28T14:18:51;6.80;99.90
21123;DHT22;10719;48.130;11.630;2024-02-28T14:21:18;6.80;99.90
21123;DHT22;10719;48.130;11.630;2024-02-28T14:23:44;6.70;99.90
21123;DHT22;10719;48.130;11.630;2024-02-28T14:26:11;6.70;99.90
21123;DHT22;10719;48.130;11.630;2024-02-28T14:28:37;6.70;99.90
21123;DHT22;10719;48.130;11.630;2024-02-28T14:31:02;6.70;99.90
21123;DHT22;10719;48.130;11.630;2024-02-28T14:33:28;6.70;99.90
21123;DHT22;10719;48.130;11.630;2024-02-28T14:35:54;6.70;99.90
21123;DHT22;10719;48.130;11.630;2024-02-28T14:38:20;6.80;99.90
21123;DHT22;10719;48.130;11.630;2024-02-28T14:40:45;6.80;99.90
21123;DHT22;10719;48.130;11.630;2024-02-28T14:43:11;6.70;99.90
21123;DHT22;10719;48.130;11.630;2024-02-28T14:45:36;6.70;99.90
21123;DHT22;10719;48.130;11.630;2024-02-28T14:48:03;6.70;99.90
21123;DHT22;10719;48.130;11.630;2024-02-28T14:50:28;6.70;99.90
21123;DHT22;10719;48.130;11.630;2024-02-28T14:52:54;6.70;99.90
21123;DHT22;10719;48.130;11.630;2024-02-28T14:55:19;6.80;99.90
21123;DHT22;10719;48.130;11.630;2024-02-28T14:57:45;6.90;99.90
21123;DHT22;10719;48.130;11.630;2024-02-28T15:00:11;6.70;99.90
21123;DHT22;10719;48.130;11.630;2024-02-28T15:02:40;6.80;99.90
21123;DHT22;10719;48.130;11.630;2024-02-28T15:05:06;6.60;99.90
21123;DHT22;10719;48.130;11.630;2024-02-28T15:07:33;6.50;99.90
21123;DHT22;10719;48.130;11.630;2024-02-28T15:09:59;6.60;99.90
21123;DHT22;10719;48.130;11.630;2024-02-28T15:12:29;6.60;99.90
21123;DHT22;10719;48.130;11.630;2024-02-28T15:14:56;6.70;99.90
21123;DHT22;10719;48.130;11.630;2024-02-28T15:17:22;6.50;99.90
21123;DHT22;10719;48.130;11.630;2024-02-28T15:19:47;6.50;99.90
21123;DHT22;10719;48.130;11.630;2024-02-28T15:22:13;6.50;99.90
21123;DHT22;10719;48.130;11.630;2024-02-28T15:24:39;6.40;99.90